Time;durP1;ratioP1;P1;durP2;ratioP2;P2;SDS_P1;SDS_P2;PMS_P1;PMS_P2;Temp;Humidity;BMP_temperature;BMP_pressure;BME280_temperature;BME280_humidity;BME280_pressure;Samples;Min_cycle;Max_cycle;Signal;HPM_P1;HPM_P2
2021/11/10 00:02:09;;;;;;;;;;;;;;;1.17;57.74;102371.70;1724633;83;20215;-69
2021/11/10 00:04:38;;;;;;;;;;;;;;;1.17;57.77;102373.53;1715772;83;20241;-69
2021/11/10 00:07:06;;;;;;;;;;;;;;;1.15;57.80;102380.86;1696033;85;20218;-71
2021/11/10 00:09:36;;;;;;;;;;;;;;;1.13;57.95;102379.59;1694189;83;20162;-70
2021/11/10 00:12:07;;;;;;;;;;;;;;;1.11;58.12;102385.56;1693857;85;20527;-71
2021/11/10 00:14:35;;;;;;;;;;;;;;;1.11;58.29;102387.39;1695462;83;20307;-70
2021/11/10 00:17:04;;;;;;;;;;;;;;;1.09;58.34;102386.13;1693510;84;20229;-69
2021/11/10 00:19:33;;;;;;;;;;;;;;;1.07;58.54;102387.17;1693564;85;20476;-71
2021/11/10 00:22:03;;;;;;;;;;;;;;;1.06;58.58;102398.93;1693638;85;20187;-69
2021/11/10 00:24:31;;;;;;;;;;;;;;;1.05;58.74;102401.23;1693640;85;20158;-69
2021/11/10 00:27:00;;;;;;;;;;;;;;;1.05;58.76;102402.59;1695475;83;20209;-70
2021/11/10 00:29:28;;;;;;;;;;;;;;;1.05;58.87;102397.19;1693517;85;20217;-72
2021/11/10 00:31:57;;;;;;;;;;;;;;;1.08;58.90;102402.41;1693714;85;20166;-71
2021/11/10 00:34:26;;;;;;;;;;;;;;;1.09;58.92;102402.33;1693630;85;20538;-69
2021/11/10 00:36:54;;;;;;;;;;;;;;;1.09;58.89;102414.47;1707566;83;20226;-69
2021/11/10 00:39:24;;;;;;;;;;;;;;;1.07;58.90;102417.74;1722472;83;20184;-70
2021/11/10 00:41:53;;;;;;;;;;;;;;;1.03;59.04;102417.52;1722411;83;20348;-69
2021/11/10 00:44:21;;;;;;;;;;;;;;;1.03;59.08;102422.05;1722290;83;20192;-70
2021/11/10 00:46:50;;;;;;;;;;;;;;;0.98;59.25;102422.31;1720167;83;20167;-70
2021/11/10 00:49:19;;;;;;;;;;;;;;;0.99;59.41;102421.83;1722560;83;20466;-70
2021/11/10 00:51:47;;;;;;;;;;;;;;;0.98;59.47;102424.14;1722536;83;20168;-69
2021/11/10 00:54:15;;;;;;;;;;;;;;;0.98;59.58;102432.23;1710735;83;20217;-71
2021/11/10 00:56:44;;;;;;;;;;;;;;;0.94;59.73;102428.36;1693798;85;20177;-73
2021/11/10 00:59:12;;;;;;;;;;;;;;;0.87;59.83;102420.69;1693544;85;20550;-71
2021/11/10 01:01:41;;;;;;;;;;;;;;;0.83;60.13;102415.08;1693514;85;20219;-70
2021/11/10 01:04:11;;;;;;;;;;;;;;;0.78;60.31;102413.98;1698343;83;20227;-70
2021/11/10 01:06:40;;;;;;;;;;;;;;;0.80;60.34;102413.89;1722354;83;20228;-70
2021/11/10 01:09:16;;;;;;;;;;;;;;;0.80;60.35;102408.50;1728638;82;20250;-70
2021/11/10 01:11:39;;;;;;;;;;;;;;;0.77;60.51;102406.84;1726955;83;20172;-71
2021/11/10 01:14:07;;;;;;;;;;;;;;;0.75;60.61;102409.23;1727786;83;20496;-70
2021/11/10 01:16:36;;;;;;;;;;;;;;;0.71;60.67;102415.28;1725462;83;20262;-70
2021/11/10 01:19:05;;;;;;;;;;;;;;;0.64;60.84;102432.73;1725018;83;20184;-69
2021/11/10 01:21:34;;;;;;;;;;;;;;;0.61;61.00;102428.84;1727509;83;20223;-73
2021/11/10 01:24:04;;;;;;;;;;;;;;;0.60;61.09;102430.67;1737694;83;20190;-70
2021/11/10 01:26:34;;;;;;;;;;;;;;;0.57;61.25;102447.02;1725045;83;20212;-70
2021/11/10 01:29:03;;;;;;;;;;;;;;;0.56;61.37;102453.85;1727486;83;20219;-71
2021/11/10 01:31:32;;;;;;;;;;;;;;;0.56;61.49;102456.07;1727542;83;20195;-71
2021/11/10 01:34:07;;;;;;;;;;;;;;;0.55;61.54;102458.38;1700760;83;20227;-70
2021/11/10 01:36:32;;;;;;;;;;;;;;;0.56;61.60;102447.11;1734999;83;20179;-70
2021/11/10 01:39:01;;;;;;;;;;;;;;;0.55;61.61;102458.85;1727574;83;20544;-70
2021/11/10 01:41:29;;;;;;;;;;;;;;;0.51;61.69;102450.53;1727526;83;20167;-69
2021/11/10 01:43:57;;;;;;;;;;;;;;;0.48;61.84;102452.05;1727514;83;20207;-70
2021/11/10 01:46:26;;;;;;;;;;;;;;;0.49;61.86;102443.00;1726364;83;20507;-71
2021/11/10 01:48:55;;;;;;;;;;;;;;;0.46;61.84;102442.69;1726875;83;20183;-70
2021/11/10 01:51:24;;;;;;;;;;;;;;;0.45;61.92;102449.03;1737657;83;20587;-70
2021/11/10 01:53:55;;;;;;;;;;;;;;;0.40;61.99;102447.06;1727463;83;20223;-70
2021/11/10 01:56:24;;;;;;;;;;;;;;;0.35;62.15;102443.74;1711844;83;20248;-70
2021/11/10 01:58:54;;;;;;;;;;;;;;;0.30;62.25;102435.90;1698820;84;20222;-70
2021/11/10 02:01:25;;;;;;;;;;;;;;;0.27;62.39;102425.75;1698618;84;20999;-69
2021/11/10 02:03:54;;;;;;;;;;;;;;;0.25;62.47;102419.09;1698494;84;20595;-71
2021/11/10 02:06:24;;;;;;;;;;;;;;;0.27;62.53;102435.19;1700606;83;20269;-70
2021/11/10 02:08:59;;;;;;;;;;;;;;;0.26;62.50;102434.31;1697381;84;20172;-69
2021/11/10 02:11:29;;;;;;;;;;;;;;;0.22;62.64;102437.27;1698281;83;20213;-71
2021/11/10 02:14:05;;;;;;;;;;;;;;;0.15;62.79;102443.45;1698334;84;20173;-71
2021/11/10 02:16:39;;;;;;;;;;;;;;;0.10;62.91;102450.91;1702634;83;20226;-71
2021/11/10 02:19:11;;;;;;;;;;;;;;;0.06;63.10;102458.76;1697104;85;20179;-69
2021/11/10 02:21:42;;;;;;;;;;;;;;;0.02;63.28;102456.30;1696952;85;20212;-71
2021/11/10 02:24:11;;;;;;;;;;;;;;;0.05;63.35;102458.36;1737594;83;20152;-70
2021/11/10 02:26:41;;;;;;;;;;;;;;;0.05;63.35;102468.27;1737620;83;20474;-71
2021/11/10 02:29:15;;;;;;;;;;;;;;;0.04;63.42;102471.44;1725453;83;20144;-71
2021/11/10 02:31:44;;;;;;;;;;;;;;;0.03;63.37;102468.35;1727582;83;20267;-70
2021/11/10 02:34:13;;;;;;;;;;;;;;;0.01;63.40;102472.95;1727674;83;20155;-72
2021/11/10 02:36:42;;;;;;;;;;;;;;;-0.04;63.43;102461.50;1727455;83;20579;-69
2021/11/10 02:39:15;;;;;;;;;;;;;;;-0.01;63.48;102464.03;1724997;83;20223;-70
2021/11/10 02:41:47;;;;;;;;;;;;;;;0.06;63.47;102467.32;1727554;83;20203;-71
2021/11/10 02:44:18;;;;;;;;;;;;;;;0.11;63.36;102478.26;1727573;83;20275;-70
2021/11/10 02:46:48;;;;;;;;;;;;;;;0.14;63.24;102470.48;1720307;83;20233;-70
2021/11/10 02:49:17;;;;;;;;;;;;;;;0.16;63.16;102469.45;1698550;84;20158;-69
2021/11/10 02:52:08;;;;;;;;;;;;;;;0.17;62.94;102470.33;1698535;84;20162;-69
2021/11/10 02:54:43;;;;;;;;;;;;;;;0.17;62.93;102471.20;1698617;84;20185;-70
2021/11/10 02:57:11;;;;;;;;;;;;;;;0.15;62.88;102469.53;1704898;83;20163;-71
2021/11/10 02:59:39;;;;;;;;;;;;;;;0.13;62.95;102468.27;1737706;83;20202;-71
2021/11/10 03:02:08;;;;;;;;;;;;;;;0.15;63.02;102474.92;1727619;83;20230;-70
2021/11/10 03:04:45;;;;;;;;;;;;;;;0.19;63.02;102463.91;1737731;83;20159;-70
2021/11/10 03:07:14;;;;;;;;;;;;;;;0.24;62.92;102464.53;1726544;83;20160;-70
2021/11/10 03:09:43;;;;;;;;;;;;;;;0.29;62.94;102471.03;1726299;83;20493;-72
2021/11/10 03:12:20;;;;;;;;;;;;;;;0.31;63.04;102471.82;1736258;83;20183;-70
2021/11/10 03:14:49;;;;;;;;;;;;;;;0.30;62.98;102482.21;1736423;82;20195;-70
2021/11/10 03:17:20;;;;;;;;;;;;;;;0.26;62.95;102490.94;1736405;83;20159;-71
2021/11/10 03:19:51;;;;;;;;;;;;;;;0.27;62.99;102499.42;1734029;83;20207;-72
2021/11/10 03:22:21;;;;;;;;;;;;;;;0.30;62.99;102506.48;1736390;83;20219;-72
2021/11/10 03:24:50;;;;;;;;;;;;;;;0.33;62.93;102501.40;1736425;83;20281;-70
2021/11/10 03:27:24;;;;;;;;;;;;;;;0.30;62.79;102491.17;1736411;83;20198;-70
2021/11/10 03:29:53;;;;;;;;;;;;;;;0.25;62.89;102501.33;1733874;82;20207;-71
2021/11/10 03:32:23;;;;;;;;;;;;;;;0.24;63.04;102499.58;1736690;82;20505;-70
2021/11/10 03:34:53;;;;;;;;;;;;;;;0.25;63.23;102493.71;1736333;83;20159;-70
2021/11/10 03:37:23;;;;;;;;;;;;;;;0.24;63.32;102496.89;1734290;83;20211;-70
2021/11/10 03:39:52;;;;;;;;;;;;;;;0.26;63.39;102499.50;1680633;84;20458;-70
2021/11/10 03:42:21;;;;;;;;;;;;;;;0.28;63.36;102482.77;1679129;85;20520;-71
2021/11/10 03:44:50;;;;;;;;;;;;;;;0.30;63.36;102479.04;1697354;85;20158;-70
2021/11/10 03:47:18;;;;;;;;;;;;;;;0.29;63.46;102474.59;1707273;84;20352;-71
2021/11/10 03:49:47;;;;;;;;;;;;;;;0.27;63.51;102481.03;1678447;84;20236;-70
2021/11/10 03:52:19;;;;;;;;;;;;;;;0.23;63.59;102492.45;1679067;85;20223;-70
2021/11/10 03:54:48;;;;;;;;;;;;;;;0.19;63.70;102480.55;1707375;84;20241;-71
2021/11/10 03:57:16;;;;;;;;;;;;;;;0.14;63.81;102480.80;1680637;85;20507;-71
2021/11/10 03:59:46;;;;;;;;;;;;;;;0.11;63.95;102482.30;1694933;84;20276;-71
2021/11/10 04:02:16;;;;;;;;;;;;;;;0.04;64.11;102483.57;1707393;84;20197;-72
2021/11/10 04:04:44;;;;;;;;;;;;;;;0.03;64.25;102482.30;1707369;84;20204;-72
2021/11/10 04:07:13;;;;;;;;;;;;;;;0.03;64.35;102480.48;1684908;84;20164;-70
2021/11/10 04:09:43;;;;;;;;;;;;;;;0.02;64.46;102492.69;1697660;84;20182;-71
2021/11/10 04:12:12;;;;;;;;;;;;;;;0.01;64.52;102495.85;1708283;84;20527;-71
2021/11/10 04:14:41;;;;;;;;;;;;;;;0.02;64.55;102502.98;1708388;84;20161;-70
2021/11/10 04:17:11;;;;;;;;;;;;;;;0.02;64.53;102504.34;1725488;83;20158;-70
2021/11/10 04:19:41;;;;;;;;;;;;;;;0.01;64.49;102501.72;1737593;83;20163;-70
2021/11/10 04:22:10;;;;;;;;;;;;;;;-0.03;64.47;102507.23;1737809;83;20191;-71
2021/11/10 04:24:39;;;;;;;;;;;;;;;-0.05;64.65;102515.00;1737929;83;20159;-71
2021/11/10 04:27:21;;;;;;;;;;;;;;;-0.05;64.67;102506.44;1735335;83;20171;-71
2021/11/10 04:29:50;;;;;;;;;;;;;;;-0.05;64.67;102502.88;1710696;83;20164;-71
2021/11/10 04:32:19;;;;;;;;;;;;;;;-0.07;64.64;102496.21;1737650;83;20163;-69
2021/11/10 04:34:48;;;;;;;;;;;;;;;-0.14;64.72;102494.78;1737763;83;20535;-69
2021/11/10 04:37:19;;;;;;;;;;;;;;;-0.20;64.87;102491.05;1735034;83;20349;-72
2021/11/10 04:39:47;;;;;;;;;;;;;;;-0.27;65.04;102489.61;1737816;83;20475;-72
2021/11/10 04:42:17;;;;;;;;;;;;;;;-0.33;65.21;102493.48;1727660;83;20199;-70
2021/11/10 04:44:51;;;;;;;;;;;;;;;-0.34;65.33;102490.39;1710485;83;20151;-70
2021/11/10 04:47:17;;;;;;;;;;;;;;;-0.36;65.39;102495.45;1727694;83;20484;-70
2021/11/10 04:49:46;;;;;;;;;;;;;;;-0.40;65.41;102502.81;1725387;83;20527;-73
2021/11/10 04:52:17;;;;;;;;;;;;;;;-0.43;65.46;102497.58;1737839;83;20163;-71
2021/11/10 04:54:44;;;;;;;;;;;;;;;-0.45;65.55;102496.78;1738113;83;20179;-70
2021/11/10 04:57:12;;;;;;;;;;;;;;;-0.45;65.68;102501.30;1737659;83;20489;-72
2021/11/10 04:59:40;;;;;;;;;;;;;;;-0.45;65.78;102490.53;1735526;83;20178;-72
2021/11/10 05:04:41;;;;;;;;;;;;;;;-0.45;66.06;102482.45;1737576;83;20151;-71
2021/11/10 05:07:11;;;;;;;;;;;;;;;-0.43;65.98;102489.50;1727635;83;20543;-71
2021/11/10 05:09:40;;;;;;;;;;;;;;;-0.43;65.88;102502.97;1724825;83;20216;-71
2021/11/10 05:12:09;;;;;;;;;;;;;;;-0.47;65.84;102493.30;1724675;83;20176;-71
2021/11/10 05:14:40;;;;;;;;;;;;;;;-0.48;65.85;102496.94;1724795;83;20183;-71
2021/11/10 05:17:09;;;;;;;;;;;;;;;-0.49;65.88;102499.70;1724954;83;20247;-71
2021/11/10 05:19:38;;;;;;;;;;;;;;;-0.48;65.88;102502.80;1724793;83;20203;-70
2021/11/10 05:22:08;;;;;;;;;;;;;;;-0.49;65.93;102515.86;1720135;83;20215;-71
2021/11/10 05:24:36;;;;;;;;;;;;;;;-0.51;65.85;102517.28;1724858;83;20202;-72
2021/11/10 05:27:06;;;;;;;;;;;;;;;-0.52;65.83;102519.58;1694659;85;20472;-71
2021/11/10 05:29:35;;;;;;;;;;;;;;;-0.50;65.83;102536.53;1694044;84;20193;-73
2021/11/10 05:32:05;;;;;;;;;;;;;;;-0.50;65.77;102528.92;1696001;85;20166;-70
2021/11/10 05:34:33;;;;;;;;;;;;;;;-0.51;65.76;102540.17;1666420;86;20189;-71
2021/11/10 05:37:01;;;;;;;;;;;;;;;-0.54;65.78;102541.66;1714389;83;20461;-70
2021/11/10 05:39:30;;;;;;;;;;;;;;;-0.52;65.85;102545.63;1694396;85;20158;-69
2021/11/10 05:41:59;;;;;;;;;;;;;;;-0.51;65.80;102537.48;1702792;84;20225;-70
2021/11/10 05:44:27;;;;;;;;;;;;;;;-0.50;65.82;102537.00;1702995;84;20209;-70
2021/11/10 05:46:55;;;;;;;;;;;;;;;-0.46;65.88;102547.55;1700327;84;20399;-70
2021/11/10 05:49:23;;;;;;;;;;;;;;;-0.43;65.84;102552.80;1702835;84;20222;-72
2021/11/10 05:51:52;;;;;;;;;;;;;;;-0.43;65.83;102554.14;1702885;84;20169;-72
2021/11/10 05:54:20;;;;;;;;;;;;;;;-0.41;65.90;102552.24;1702713;84;20153;-70
2021/11/10 05:56:49;;;;;;;;;;;;;;;-0.39;65.84;102550.34;1700535;84;20240;-71
2021/11/10 05:59:18;;;;;;;;;;;;;;;-0.36;65.74;102553.36;1702938;84;20522;-70
2021/11/10 06:01:47;;;;;;;;;;;;;;;-0.33;65.73;102556.78;1702900;84;20218;-70
2021/11/10 06:04:28;;;;;;;;;;;;;;;-0.29;65.72;102555.28;1702991;84;20183;-71
2021/11/10 06:06:56;;;;;;;;;;;;;;;-0.22;65.72;102556.25;1702671;84;20526;-71
2021/11/10 06:09:26;;;;;;;;;;;;;;;-0.14;65.57;102566.66;1700851;84;20253;-70
2021/11/10 06:11:56;;;;;;;;;;;;;;;-0.10;65.33;102564.20;1701590;84;20202;-71
2021/11/10 06:14:24;;;;;;;;;;;;;;;-0.05;65.31;102567.07;1733676;83;20289;-70
2021/11/10 06:16:53;;;;;;;;;;;;;;;0.06;65.16;102557.61;1733638;83;20296;-70
2021/11/10 06:19:25;;;;;;;;;;;;;;;0.06;64.87;102561.17;1731490;82;20183;-71
2021/11/10 06:21:54;;;;;;;;;;;;;;;0.10;64.85;102555.16;1733813;82;20187;-71
2021/11/10 06:24:23;;;;;;;;;;;;;;;0.14;64.89;102557.62;1733591;83;20532;-70
2021/11/10 06:26:52;;;;;;;;;;;;;;;0.24;64.75;102561.59;1706901;83;20261;-70
2021/11/10 06:29:23;;;;;;;;;;;;;;;0.32;64.64;102558.50;1704342;84;20162;-71
2021/11/10 06:31:51;;;;;;;;;;;;;;;0.41;64.49;102559.85;1704276;84;20317;-70
2021/11/10 06:34:21;;;;;;;;;;;;;;;0.47;64.38;102555.48;1704606;84;20221;-71
2021/11/10 06:36:49;;;;;;;;;;;;;;;0.55;64.27;102557.31;1704609;84;20460;-71
2021/11/10 06:39:18;;;;;;;;;;;;;;;0.61;64.02;102555.63;1731691;83;20160;-71
2021/11/10 06:41:47;;;;;;;;;;;;;;;0.67;63.87;102543.20;1733380;82;20199;-71
2021/11/10 06:44:15;;;;;;;;;;;;;;;0.73;63.77;102553.67;1733413;83;20175;-72
2021/11/10 06:46:44;;;;;;;;;;;;;;;0.82;63.65;102549.13;1733865;83;20156;-71
2021/11/10 06:49:12;;;;;;;;;;;;;;;0.89;63.60;102544.27;1730967;83;20192;-71
2021/11/10 06:51:41;;;;;;;;;;;;;;;0.99;63.39;102550.05;1733384;83;20271;-73
2021/11/10 06:54:10;;;;;;;;;;;;;;;1.08;63.17;102554.47;1733501;83;20519;-72
2021/11/10 06:56:38;;;;;;;;;;;;;;;1.14;62.88;102553.26;1731081;83;20251;-72
2021/11/10 06:59:06;;;;;;;;;;;;;;;1.21;62.70;102553.31;1733787;82;20206;-73
2021/11/10 07:01:35;;;;;;;;;;;;;;;1.28;62.59;102547.48;1733526;82;20485;-70
2021/11/10 07:04:05;;;;;;;;;;;;;;;1.36;62.22;102555.20;1677381;85;20177;-70
2021/11/10 07:06:34;;;;;;;;;;;;;;;1.40;62.15;102550.02;1676954;86;20171;-73
2021/11/10 07:09:06;;;;;;;;;;;;;;;1.44;61.94;102544.83;1571619;91;20173;-72
2021/11/10 07:11:35;;;;;;;;;;;;;;;1.50;61.78;102547.67;1571316;91;20597;-71
2021/11/10 07:14:04;;;;;;;;;;;;;;;1.51;61.64;102547.58;1562755;92;20527;-72
2021/11/10 07:16:32;;;;;;;;;;;;;;;1.51;61.60;102542.17;1571532;90;20212;-71
2021/11/10 07:19:01;;;;;;;;;;;;;;;1.49;61.51;102537.82;1562830;92;20185;-72
2021/11/10 07:21:29;;;;;;;;;;;;;;;1.49;61.52;102533.29;1580331;88;20220;-70
2021/11/10 07:23:57;;;;;;;;;;;;;;;1.57;61.54;102531.50;1612441;89;20229;-74
2021/11/10 07:26:26;;;;;;;;;;;;;;;1.74;61.37;102539.99;1641153;84;20193;-72
2021/11/10 07:28:54;;;;;;;;;;;;;;;1.96;60.91;102541.87;1708440;84;20188;-73
2021/11/10 07:31:23;;;;;;;;;;;;;;;2.22;60.50;102538.50;1708687;84;20512;-72
2021/11/10 07:33:51;;;;;;;;;;;;;;;2.54;59.66;102540.61;1708388;84;20221;-73
2021/11/10 07:36:19;;;;;;;;;;;;;;;2.86;59.11;102533.24;1708265;84;20205;-72
2021/11/10 07:38:47;;;;;;;;;;;;;;;3.20;57.85;102524.34;1708499;84;20165;-72
2021/11/10 07:41:18;;;;;;;;;;;;;;;3.44;56.84;102505.66;1708385;84;20498;-73
2021/11/10 07:43:51;;;;;;;;;;;;;;;3.72;55.96;102500.64;1715447;83;20210;-72
2021/11/10 07:46:18;;;;;;;;;;;;;;;3.99;55.24;102496.11;1727484;83;20199;-71
2021/11/10 07:48:47;;;;;;;;;;;;;;;4.28;54.10;102500.04;1727530;83;20167;-71
2021/11/10 07:51:17;;;;;;;;;;;;;;;4.41;52.86;102488.72;1727543;83;20219;-72
2021/11/10 07:53:46;;;;;;;;;;;;;;;4.50;52.77;102497.58;1725493;83;20327;-72
2021/11/10 07:56:14;;;;;;;;;;;;;;;4.73;52.36;102498.22;1727583;83;20160;-71
2021/11/10 07:58:43;;;;;;;;;;;;;;;4.93;50.76;102504.08;1727528;83;20192;-70
2021/11/10 08:01:13;;;;;;;;;;;;;;;4.94;50.67;102513.47;1737793;83;20223;-71
2021/11/10 08:03:42;;;;;;;;;;;;;;;4.89;50.51;102513.42;1737642;83;20233;-73
2021/11/10 08:06:10;;;;;;;;;;;;;;;4.81;50.44;102525.32;1735110;83;20520;-71
2021/11/10 08:08:40;;;;;;;;;;;;;;;4.74;50.42;102528.47;1737917;83;20562;-71
2021/11/10 08:11:08;;;;;;;;;;;;;;;4.69;50.31;102537.43;1737557;83;20211;-70
2021/11/10 08:13:46;;;;;;;;;;;;;;;4.67;50.46;102528.52;1717132;83;20567;-70
2021/11/10 08:16:14;;;;;;;;;;;;;;;4.66;50.29;102528.14;1698608;84;20222;-72
2021/11/10 08:18:44;;;;;;;;;;;;;;;4.63;50.36;102531.06;1698673;84;20249;-71
2021/11/10 08:21:12;;;;;;;;;;;;;;;4.58;50.40;102526.45;1698542;84;20162;-71
2021/11/10 08:23:42;;;;;;;;;;;;;;;4.56;50.30;102542.47;1702794;83;20237;-71
2021/11/10 08:26:10;;;;;;;;;;;;;;;4.50;50.48;102539.65;1727526;83;20156;-70
2021/11/10 08:28:40;;;;;;;;;;;;;;;4.45;50.40;102533.19;1727519;83;20513;-72
2021/11/10 08:31:09;;;;;;;;;;;;;;;4.37;50.45;102537.40;1727431;83;20151;-71
2021/11/10 08:33:37;;;;;;;;;;;;;;;4.29;50.67;102539.77;1737677;83;20551;-70
2021/11/10 08:36:08;;;;;;;;;;;;;;;4.28;50.66;102540.26;1735603;83;20147;-71
2021/11/10 08:38:37;;;;;;;;;;;;;;;4.23;50.74;102549.69;1738087;83;20186;-70
2021/11/10 08:41:05;;;;;;;;;;;;;;;4.17;50.63;102540.12;1737484;83;20183;-70
2021/11/10 08:43:34;;;;;;;;;;;;;;;4.12;50.90;102540.42;1727455;83;20215;-71
2021/11/10 08:46:02;;;;;;;;;;;;;;;4.08;50.87;102533.47;1725449;83;20219;-71
2021/11/10 08:48:31;;;;;;;;;;;;;;;4.04;50.79;102533.30;1727855;83;20163;-71
2021/11/10 08:51:00;;;;;;;;;;;;;;;4.00;50.93;102530.41;1727445;83;20180;-72
2021/11/10 08:53:34;;;;;;;;;;;;;;;3.99;50.93;102530.51;1727548;83;20207;-73
2021/11/10 08:56:04;;;;;;;;;;;;;;;4.00;50.86;102515.48;1694930;85;20146;-71
2021/11/10 08:58:34;;;;;;;;;;;;;;;4.00;50.51;102516.84;1696449;85;20182;-65
2021/11/10 09:01:04;;;;;;;;;;;;;;;3.95;50.45;102520.35;1722181;81;20189;-67
2021/11/10 09:03:39;;;;;;;;;;;;;;;3.97;52.08;102522.47;1666970;84;20195;-66
2021/11/10 09:06:09;;;;;;;;;;;;;;;4.05;50.78;102512.46;1713927;83;20183;-65
2021/11/10 09:08:38;;;;;;;;;;;;;;;4.07;50.26;102501.89;1737557;83;20279;-65
2021/11/10 09:11:08;;;;;;;;;;;;;;;4.12;49.48;102507.87;1714376;83;20518;-68
2021/11/10 09:13:38;;;;;;;;;;;;;;;4.17;49.63;102513.47;1705897;83;20156;-64
2021/11/10 09:16:07;;;;;;;;;;;;;;;4.20;49.36;102501.05;1710131;83;20429;-65
2021/11/10 09:18:36;;;;;;;;;;;;;;;4.27;48.81;102511.87;1710797;83;20163;-67
2021/11/10 09:21:06;;;;;;;;;;;;;;;4.31;48.50;102512.04;1694879;85;20541;-67
2021/11/10 09:23:34;;;;;;;;;;;;;;;4.34;48.03;102509.11;1699422;83;20506;-67
2021/11/10 09:26:03;;;;;;;;;;;;;;;4.35;47.54;102504.94;1695523;85;20194;-65
2021/11/10 09:28:37;;;;;;;;;;;;;;;4.32;47.10;102504.28;1695785;85;20217;-67
2021/11/10 09:31:07;;;;;;;;;;;;;;;4.31;46.76;102503.41;1695627;85;20193;-66
2021/11/10 09:33:40;;;;;;;;;;;;;;;4.31;46.58;102495.76;1712297;83;20156;-66
2021/11/10 09:36:09;;;;;;;;;;;;;;;4.33;45.92;102498.74;1717624;83;20162;-65
2021/11/10 09:38:46;;;;;;;;;;;;;;;4.36;45.37;102494.46;1677415;85;20167;-61
2021/11/10 09:41:14;;;;;;;;;;;;;;;4.40;45.03;102486.98;1661292;85;20201;-62
2021/11/10 09:43:44;;;;;;;;;;;;;;;4.43;43.68;102495.77;1685382;84;20252;-63
2021/11/10 09:46:25;;;;;;;;;;;;;;;4.45;44.06;102493.82;1705002;84;20264;-65
2021/11/10 09:48:54;;;;;;;;;;;;;;;4.49;43.83;102501.75;1683600;84;20217;-63
2021/11/10 09:51:22;;;;;;;;;;;;;;;4.48;43.59;102495.45;1705388;84;20209;-65
2021/11/10 09:53:51;;;;;;;;;;;;;;;4.51;43.65;102488.94;1593389;90;20165;-64
2021/11/10 09:56:23;;;;;;;;;;;;;;;4.53;43.50;102500.08;1595830;90;20612;-64
2021/11/10 09:58:52;;;;;;;;;;;;;;;4.58;43.02;102502.02;1595970;90;20218;-66
2021/11/10 10:01:21;;;;;;;;;;;;;;;4.66;41.07;102506.41;1595815;90;20252;-65
2021/11/10 10:03:52;;;;;;;;;;;;;;;4.71;41.69;102491.16;1578396;90;20216;-64
2021/11/10 10:06:21;;;;;;;;;;;;;;;4.75;42.23;102490.83;1546183;93;20248;-65
2021/11/10 10:08:51;;;;;;;;;;;;;;;4.80;42.60;102492.34;1572543;91;20188;-64
2021/11/10 10:11:21;;;;;;;;;;;;;;;4.82;42.40;102495.83;1609886;84;20152;-64
2021/11/10 10:13:50;;;;;;;;;;;;;;;4.86;42.78;102500.06;1658914;86;20219;-64
2021/11/10 10:16:22;;;;;;;;;;;;;;;4.92;42.76;102494.19;1675479;86;20253;-63
2021/11/10 10:18:50;;;;;;;;;;;;;;;4.94;42.43;102497.66;1664518;86;20266;-63
2021/11/10 10:21:24;;;;;;;;;;;;;;;4.96;41.44;102490.27;1689795;84;20146;-64
2021/11/10 10:23:53;;;;;;;;;;;;;;;4.93;41.15;102479.62;1699934;84;20205;-64
2021/11/10 10:26:25;;;;;;;;;;;;;;;4.94;41.89;102482.72;1687930;84;20200;-63
2021/11/10 10:28:55;;;;;;;;;;;;;;;4.99;41.45;102473.75;1661868;84;20539;-65
2021/11/10 10:31:25;;;;;;;;;;;;;;;5.05;41.66;102466.02;1690434;84;20203;-64
2021/11/10 10:34:01;;;;;;;;;;;;;;;5.13;41.82;102468.67;1676687;86;20179;-63
2021/11/10 10:36:33;;;;;;;;;;;;;;;5.16;41.41;102467.96;1687078;84;20478;-65
2021/11/10 10:39:10;;;;;;;;;;;;;;;5.17;41.50;102467.47;1691629;84;20220;-63
2021/11/10 10:41:43;;;;;;;;;;;;;;;5.17;41.74;102472.41;1681706;84;20219;-67
2021/11/10 10:44:15;;;;;;;;;;;;;;;5.18;41.25;102466.00;1657490;86;20303;-64
2021/11/10 10:46:45;;;;;;;;;;;;;;;5.22;40.99;102468.91;1664679;86;20262;-64
2021/11/10 10:49:22;;;;;;;;;;;;;;;5.26;40.87;102462.75;1675828;86;20220;-64
2021/11/10 10:51:52;;;;;;;;;;;;;;;5.28;40.46;102460.30;1713667;83;20193;-65
2021/11/10 10:54:28;;;;;;;;;;;;;;;5.31;40.80;102457.84;1712286;83;20162;-63
2021/11/10 10:56:59;;;;;;;;;;;;;;;5.31;41.16;102460.07;1701724;83;20733;-65
2021/11/10 10:59:28;;;;;;;;;;;;;;;5.33;40.80;102459.95;1708560;83;20460;-65
2021/11/10 11:02:00;;;;;;;;;;;;;;;5.35;40.36;102465.66;1708004;83;20158;-65
2021/11/10 11:04:31;;;;;;;;;;;;;;;5.34;39.10;102472.08;1704560;83;20511;-65
2021/11/10 11:07:04;;;;;;;;;;;;;;;5.36;38.84;102457.02;1676654;84;20331;-66
2021/11/10 11:09:52;;;;;;;;;;;;;;;5.38;38.29;102455.05;1676741;85;20197;-65
2021/11/10 11:12:29;;;;;;;;;;;;;;;5.37;37.94;102446.52;1703523;84;20205;-66
2021/11/10 11:15:14;;;;;;;;;;;;;;;5.38;38.55;102443.69;1737684;83;20207;-65
2021/11/10 11:17:48;;;;;;;;;;;;;;;5.41;38.80;102448.89;1737575;83;20213;-64
2021/11/10 11:20:34;;;;;;;;;;;;;;;5.44;37.77;102448.28;1737948;83;20454;-65
2021/11/10 11:23:03;;;;;;;;;;;;;;;5.39;37.59;102444.06;1735634;83;20770;-64
2021/11/10 11:25:40;;;;;;;;;;;;;;;5.38;38.27;102448.25;1737793;83;20153;-64
2021/11/10 11:28:13;;;;;;;;;;;;;;;5.36;38.20;102448.36;1738066;83;20186;-64
2021/11/10 11:30:44;;;;;;;;;;;;;;;5.36;38.09;102444.78;1697536;85;20158;-63
2021/11/10 11:33:15;;;;;;;;;;;;;;;5.36;38.18;102444.29;1735687;83;20442;-64
2021/11/10 11:35:46;;;;;;;;;;;;;;;5.36;38.43;102452.44;1729456;81;20176;-64
2021/11/10 11:38:18;;;;;;;;;;;;;;;5.44;38.45;102446.92;1721683;83;21234;-63
2021/11/10 11:40:49;;;;;;;;;;;;;;;5.46;38.10;102452.63;1720267;81;20183;-65
2021/11/10 11:43:24;;;;;;;;;;;;;;;5.46;38.27;102444.96;1727692;83;20211;-66
2021/11/10 11:45:54;;;;;;;;;;;;;;;5.47;38.82;102442.62;1711718;83;20579;-65
2021/11/10 11:48:25;;;;;;;;;;;;;;;5.49;39.02;102443.37;1713833;83;20198;-63
2021/11/10 11:50:54;;;;;;;;;;;;;;;5.46;39.32;102443.11;1738215;83;20151;-65
2021/11/10 11:53:23;;;;;;;;;;;;;;;5.48;39.92;102448.44;1625089;88;20489;-65
2021/11/10 11:55:57;;;;;;;;;;;;;;;5.49;39.91;102442.02;1625697;88;20207;-66
2021/11/10 11:58:38;;;;;;;;;;;;;;;5.51;39.91;102438.69;1605921;88;20294;-66
2021/11/10 12:01:11;;;;;;;;;;;;;;;5.53;41.11;102444.88;1600015;90;20529;-63
2021/11/10 12:03:48;;;;;;;;;;;;;;;5.56;39.58;102441.93;1600140;90;20240;-67
2021/11/10 12:06:20;;;;;;;;;;;;;;;5.61;39.79;102444.68;1600218;90;20560;-65
2021/11/10 12:08:53;;;;;;;;;;;;;;;5.65;38.43;102439.87;1602972;88;20202;-65
2021/11/10 12:11:40;;;;;;;;;;;;;;;5.67;38.81;102441.98;1677168;83;20159;-66
2021/11/10 12:14:16;;;;;;;;;;;;;;;5.73;39.19;102438.80;1727566;83;20160;-65
2021/11/10 12:17:12;;;;;;;;;;;;;;;5.81;40.20;102424.13;1727372;83;20207;-67
2021/11/10 12:19:54;;;;;;;;;;;;;;;5.91;38.52;102426.58;1694840;85;20146;-65
2021/11/10 12:22:24;;;;;;;;;;;;;;;5.94;38.68;102422.76;1685544;85;20218;-64
2021/11/10 12:24:57;;;;;;;;;;;;;;;5.95;37.48;102426.72;1696922;85;20269;-66
2021/11/10 12:27:30;;;;;;;;;;;;;;;5.96;36.99;102425.73;1737738;83;20183;-66
2021/11/10 12:30:19;;;;;;;;;;;;;;;5.96;36.31;102409.41;1735542;83;20499;-64
2021/11/10 12:33:01;;;;;;;;;;;;;;;5.97;36.92;102402.98;1708260;84;20561;-65
2021/11/10 12:35:35;;;;;;;;;;;;;;;5.98;36.67;102399.27;1708142;84;20196;-65
2021/11/10 12:38:06;;;;;;;;;;;;;;;6.02;35.57;102397.17;1717126;83;20272;-67
2021/11/10 12:40:36;;;;;;;;;;;;;;;6.05;35.48;102388.78;1691879;83;20183;-65
2021/11/10 12:43:11;;;;;;;;;;;;;;;6.10;35.91;102400.17;1673326;84;20226;-66
2021/11/10 12:45:43;;;;;;;;;;;;;;;6.13;35.36;102401.78;1698593;84;20476;-63
2021/11/10 12:48:40;;;;;;;;;;;;;;;6.14;35.72;102403.52;1697420;84;20270;-65
2021/11/10 12:51:29;;;;;;;;;;;;;;;6.16;35.89;102394.25;1724315;83;20207;-65
2021/11/10 12:54:06;;;;;;;;;;;;;;;6.21;36.04;102397.97;1718308;83;20452;-64
2021/11/10 12:56:48;;;;;;;;;;;;;;;6.25;35.61;102396.24;1698375;84;20505;-66
2021/11/10 12:59:27;;;;;;;;;;;;;;;6.28;35.59;102396.00;1708019;84;20268;-63
2021/11/10 13:01:57;;;;;;;;;;;;;;;6.28;35.22;102397.36;1735488;83;20525;-65
2021/11/10 13:04:31;;;;;;;;;;;;;;;6.29;35.55;102395.02;1727517;83;20156;-65
2021/11/10 13:07:08;;;;;;;;;;;;;;;6.27;35.40;102392.91;1727378;83;20164;-65